INFORMACIÓN METAR y TAF
METAR FOR LGSK
ADDS - METARS form results

(0046 UTC 03 October 2022)
Data provider http://aviationweather.gov/metar/data/
 
Forecast for: LGSK (SKIATHOS ISLAND , GR)
Text: TAF LGSK 022300Z 0300/0309 VRB05KT 9999 FEW020
Forecast period: 0000 to 0400 UTC 03 October 2022
Forecast type: FROM: standard forecast or significant change
Winds: variable direction winds at 6 MPH (5 knots; 2.6 m/s)
Visibility: 6 or more miles (10+ km)
Ceiling: at least 12,000 feet AGL
Clouds: few clouds at 2000 feet AGL
Weather: no significant weather forecast for this period
Text: BECMG 0304/0306 15010KT
Forecast period: 0400 to 0900 UTC 03 October 2022
Forecast type: BECOMING: Conditions expected to become as follows by 0600 UTC 03 October 2022
Winds: from the SSE (150 degrees) at 12 MPH (10 knots; 5.1 m/s)
Visibility: 6 or more miles (10+ km)
Ceiling: at least 12,000 feet AGL
Clouds: few clouds at 2000 feet AGL
Weather: no significant weather forecast for this period

 MAPA DE AEROPUERTO

 INFORMACIÓN DE PISTA